createdAt,value
2018-02-08T00:00:01.108Z,0.08
2018-02-08T00:00:41.672Z,0.07
2018-02-08T00:01:22.208Z,0.03
2018-02-08T00:02:02.768Z,0.08
2018-02-08T00:02:43.311Z,0.01
2018-02-08T00:03:23.884Z,0.05
2018-02-08T00:04:04.436Z,0
2018-02-08T00:04:44.980Z,-0.02
2018-02-08T00:05:25.530Z,-0.02
2018-02-08T00:06:06.068Z,0.03
2018-02-08T00:06:46.618Z,0.1
2018-02-08T00:07:27.180Z,0.01
2018-02-08T00:08:07.741Z,0.11
2018-02-08T00:08:48.297Z,0.01
2018-02-08T00:09:28.818Z,0.08
2018-02-08T00:10:09.359Z,0.07
2018-02-08T00:10:49.911Z,0.08
2018-02-08T00:11:30.454Z,0.08
2018-02-08T00:12:11.028Z,0.1
2018-02-08T00:12:51.584Z,0.05
2018-02-08T00:13:32.129Z,0.05
2018-02-08T00:14:12.713Z,0.04
2018-02-08T00:14:53.246Z,0.05
2018-02-08T00:15:33.790Z,0.05
2018-02-08T00:16:14.352Z,-0.03
2018-02-08T00:16:54.934Z,-0.02
2018-02-08T00:17:35.499Z,0.01
2018-02-08T00:18:16.062Z,0.03
2018-02-08T00:18:56.617Z,0.03
2018-02-08T00:19:37.176Z,0.03
2018-02-08T00:20:17.802Z,0.01
2018-02-08T00:20:58.375Z,0.05
2018-02-08T00:21:38.929Z,0.05
2018-02-08T00:22:19.482Z,0.01
2018-02-08T00:23:00.055Z,0.08
2018-02-08T00:23:40.576Z,0.03
2018-02-08T00:24:21.144Z,0.04
2018-02-08T00:25:01.700Z,0.1
2018-02-08T00:25:42.254Z,0.03
2018-02-08T00:26:22.791Z,-0.03
2018-02-08T00:27:03.369Z,0.1
2018-02-08T00:27:43.915Z,0.01
2018-02-08T00:28:24.433Z,-0.03
2018-02-08T00:29:04.971Z,0.04
2018-02-08T00:29:45.531Z,0.05
2018-02-08T00:30:26.103Z,0.05
2018-02-08T00:31:06.665Z,0.03
2018-02-08T00:31:47.195Z,0.05
2018-02-08T00:32:27.766Z,0.05
2018-02-08T00:33:08.334Z,0.03
2018-02-08T00:33:48.887Z,0.01
2018-02-08T00:34:29.474Z,0
2018-02-08T00:35:09.983Z,-0.06
2018-02-08T00:35:50.530Z,0.07
2018-02-08T00:36:31.078Z,0.1
2018-02-08T00:37:11.616Z,0.04
2018-02-08T00:37:52.149Z,-0.07
2018-02-08T00:38:32.708Z,0.07
2018-02-08T00:39:13.294Z,0.07
2018-02-08T00:39:53.845Z,-0.02
2018-02-08T00:40:34.388Z,-0.02
2018-02-08T00:41:14.953Z,0.07
2018-02-08T00:41:55.564Z,0.05
2018-02-08T00:42:36.124Z,0.05
2018-02-08T00:43:16.667Z,0.07
2018-02-08T00:43:57.227Z,0.08
2018-02-08T00:44:37.802Z,0.01
2018-02-08T00:45:18.357Z,0.12
2018-02-08T00:45:58.912Z,0.03
2018-02-08T00:46:39.454Z,0.1
2018-02-08T00:47:20.002Z,0.08
2018-02-08T00:48:00.603Z,0.07
2018-02-08T00:48:41.142Z,0.08
2018-02-08T00:49:21.778Z,0.01
2018-02-08T00:50:02.326Z,-0.03
2018-02-08T00:50:42.880Z,0.03
2018-02-08T00:51:23.534Z,0.04
2018-02-08T00:52:04.093Z,0.07
2018-02-08T00:52:44.620Z,0.05
2018-02-08T00:53:25.218Z,0.08
2018-02-08T00:54:05.767Z,-0.02
2018-02-08T00:54:46.313Z,0
2018-02-08T00:55:26.911Z,0.04
2018-02-08T00:56:07.463Z,0.04
2018-02-08T00:56:48.073Z,0.01
2018-02-08T00:57:28.649Z,-0.02
2018-02-08T00:58:09.184Z,0.07
2018-02-08T00:58:49.755Z,-0.02
2018-02-08T00:59:30.302Z,0
2018-02-08T01:00:10.864Z,-0.07
2018-02-08T01:00:51.414Z,-0.02
2018-02-08T01:01:31.998Z,-0.08
2018-02-08T01:02:12.541Z,-0.15
2018-02-08T01:02:53.101Z,-0.08
2018-02-08T01:03:33.649Z,-0.15
2018-02-08T01:04:14.228Z,-0.13
2018-02-08T01:04:54.784Z,-0.14
2018-02-08T01:05:35.322Z,-0.11
2018-02-08T01:06:15.897Z,-0.23
2018-02-08T01:06:56.441Z,-0.11
2018-02-08T01:07:37.068Z,-0.13
2018-02-08T01:08:17.683Z,-0.11
2018-02-08T01:08:58.234Z,-0.14
2018-02-08T01:09:38.809Z,-0.08
2018-02-08T01:10:19.375Z,-0.18
2018-02-08T01:10:59.940Z,-0.17
2018-02-08T01:11:40.529Z,-0.18
2018-02-08T01:12:21.093Z,-0.23
2018-02-08T01:13:01.738Z,-0.17
2018-02-08T01:13:42.306Z,-0.23
2018-02-08T01:14:22.856Z,-0.23
2018-02-08T01:15:03.454Z,-0.28
2018-02-08T01:15:44.017Z,-0.26
2018-02-08T01:16:24.572Z,-0.23
2018-02-08T01:17:05.133Z,-0.2
2018-02-08T01:17:45.685Z,-0.32
2018-02-08T01:18:26.234Z,-0.21
2018-02-08T01:19:06.842Z,-0.28
2018-02-08T01:19:47.462Z,-0.21
2018-02-08T01:20:28.039Z,-0.32
2018-02-08T01:21:08.609Z,-0.34
2018-02-08T01:21:49.148Z,-0.32
2018-02-08T01:22:29.696Z,-0.36
2018-02-08T01:23:10.223Z,-0.36
2018-02-08T01:23:50.811Z,-0.29
2018-02-08T01:24:31.372Z,-0.36
2018-02-08T01:25:11.941Z,-0.29
2018-02-08T01:25:52.492Z,-0.31
2018-02-08T01:26:33.086Z,-0.36
2018-02-08T01:27:13.672Z,-0.25
2018-02-08T01:27:54.235Z,-0.32
2018-02-08T01:28:34.814Z,-0.25
2018-02-08T01:29:15.382Z,-0.25
2018-02-08T01:29:55.990Z,-0.28
2018-02-08T01:30:36.576Z,-0.31
2018-02-08T01:31:17.139Z,-0.32
2018-02-08T01:31:57.662Z,-0.25
2018-02-08T01:32:38.244Z,-0.32
2018-02-08T01:33:18.807Z,-0.36
2018-02-08T01:33:59.387Z,-0.32
2018-02-08T01:34:39.933Z,-0.31
2018-02-08T01:35:20.483Z,-0.32
2018-02-08T01:36:01.124Z,-0.36
2018-02-08T01:36:41.675Z,-0.35
2018-02-08T01:37:22.242Z,-0.34
2018-02-08T01:38:02.807Z,-0.38
2018-02-08T01:38:43.314Z,-0.44
2018-02-08T01:39:23.868Z,-0.41
2018-02-08T01:40:04.427Z,-0.43
2018-02-08T01:40:44.998Z,-0.38
2018-02-08T01:41:25.554Z,-0.44
2018-02-08T01:42:06.118Z,-0.39
2018-02-08T01:42:46.672Z,-0.43
2018-02-08T01:43:27.268Z,-0.46
2018-02-08T01:44:07.841Z,-0.41
2018-02-08T01:44:48.414Z,-0.36
2018-02-08T01:45:29.008Z,-0.34
2018-02-08T01:46:09.589Z,-0.32
2018-02-08T01:46:50.114Z,-0.31
2018-02-08T01:47:30.706Z,-0.34
2018-02-08T01:48:11.257Z,-0.36
2018-02-08T01:48:51.825Z,-0.34
2018-02-08T01:49:32.388Z,-0.36
2018-02-08T01:50:12.972Z,-0.29
2018-02-08T01:50:53.534Z,-0.39
2018-02-08T01:51:34.096Z,-0.29
2018-02-08T01:52:14.649Z,-0.31
2018-02-08T01:52:55.198Z,-0.29
2018-02-08T01:53:35.773Z,-0.26
2018-02-08T01:54:16.412Z,-0.29
2018-02-08T01:54:56.966Z,-0.29
2018-02-08T01:55:37.491Z,-0.26
2018-02-08T01:56:18.036Z,-0.26
2018-02-08T01:56:58.660Z,-0.31
2018-02-08T01:57:39.207Z,-0.36
2018-02-08T01:58:19.779Z,-0.29
2018-02-08T01:59:00.340Z,-0.28
2018-02-08T01:59:40.898Z,-0.32
2018-02-08T02:00:21.454Z,-0.32
2018-02-08T02:01:02.015Z,-0.31
2018-02-08T02:01:42.564Z,-0.32
2018-02-08T02:02:23.117Z,-0.31
2018-02-08T02:03:03.661Z,-0.28
2018-02-08T02:03:44.231Z,-0.31
2018-02-08T02:04:24.807Z,-0.35
2018-02-08T02:05:05.445Z,-0.36
2018-02-08T02:05:45.978Z,-0.29
2018-02-08T02:06:26.571Z,-0.32
2018-02-08T02:07:07.131Z,-0.35
2018-02-08T02:07:47.679Z,-0.43
2018-02-08T02:08:28.262Z,-0.46
2018-02-08T02:09:08.878Z,-0.43
2018-02-08T02:09:49.422Z,-0.44
2018-02-08T02:10:30.082Z,-0.44
2018-02-08T02:11:10.666Z,-0.41
2018-02-08T02:11:51.293Z,-0.43
2018-02-08T02:12:31.844Z,-0.46
2018-02-08T02:13:12.423Z,-0.46
2018-02-08T02:13:53.042Z,-0.47
2018-02-08T02:14:33.585Z,-0.43
2018-02-08T02:15:14.146Z,-0.47
2018-02-08T02:15:54.684Z,-0.43
2018-02-08T02:16:35.279Z,-0.46
2018-02-08T02:17:15.839Z,-0.43
2018-02-08T02:17:56.464Z,-0.44
2018-02-08T02:18:36.993Z,-0.49
2018-02-08T02:19:17.547Z,-0.46
2018-02-08T02:19:58.113Z,-0.5
2018-02-08T02:20:38.787Z,-0.5
2018-02-08T02:21:19.310Z,-0.44
2018-02-08T02:21:59.897Z,-0.52
2018-02-08T02:22:40.454Z,-0.57
2018-02-08T02:23:21.008Z,-0.46
2018-02-08T02:24:01.571Z,-0.49
2018-02-08T02:24:42.172Z,-0.47
2018-02-08T02:25:22.728Z,-0.46
2018-02-08T02:26:03.279Z,-0.49
2018-02-08T02:26:43.833Z,-0.47
2018-02-08T02:27:24.374Z,-0.46
2018-02-08T02:28:04.928Z,-0.46
2018-02-08T02:28:45.501Z,-0.47
2018-02-08T02:29:26.091Z,-0.52
2018-02-08T02:30:06.642Z,-0.5
2018-02-08T02:30:47.190Z,-0.47
2018-02-08T02:31:27.721Z,-0.41
2018-02-08T02:32:08.301Z,-0.43
2018-02-08T02:32:48.882Z,-0.49
2018-02-08T02:33:29.454Z,-0.43
2018-02-08T02:34:10.026Z,-0.5
2018-02-08T02:34:50.591Z,-0.49
2018-02-08T02:35:31.173Z,-0.49
2018-02-08T02:36:11.740Z,-0.44
2018-02-08T02:36:52.361Z,-0.47
2018-02-08T02:37:32.908Z,-0.46
2018-02-08T02:38:13.457Z,-0.49
2018-02-08T02:38:54.000Z,-0.47
2018-02-08T02:39:34.545Z,-0.47
2018-02-08T02:40:15.105Z,-0.35
2018-02-08T02:40:55.662Z,-0.47
2018-02-08T02:41:36.217Z,-0.41
2018-02-08T02:42:16.773Z,-0.35
2018-02-08T02:42:57.323Z,-0.35
2018-02-08T02:43:37.898Z,-0.35
2018-02-08T02:44:18.446Z,-0.36
2018-02-08T02:44:58.995Z,-0.44
2018-02-08T02:45:39.545Z,-0.32
2018-02-08T02:46:20.097Z,-0.35
2018-02-08T02:47:00.655Z,-0.34
2018-02-08T02:47:41.202Z,-0.36
2018-02-08T02:48:21.749Z,-0.36
2018-02-08T02:49:02.303Z,-0.36
2018-02-08T02:49:42.880Z,-0.32
2018-02-08T02:50:23.471Z,-0.36
2018-02-08T02:51:04.033Z,-0.31
2018-02-08T02:51:44.581Z,-0.32
2018-02-08T02:52:25.181Z,-0.35
2018-02-08T02:53:05.748Z,-0.32
2018-02-08T02:53:46.335Z,-0.35
2018-02-08T02:54:26.894Z,-0.41
2018-02-08T02:55:07.553Z,-0.32
2018-02-08T02:55:48.154Z,-0.32
2018-02-08T02:56:28.719Z,-0.34
2018-02-08T02:57:09.316Z,-0.32
2018-02-08T02:57:49.882Z,-0.31
2018-02-08T02:58:30.420Z,-0.31
2018-02-08T02:59:10.973Z,-0.32
2018-02-08T02:59:51.531Z,-0.34
2018-02-08T03:00:32.077Z,-0.32
2018-02-08T03:01:12.620Z,-0.31
2018-02-08T03:01:53.184Z,-0.36
2018-02-08T03:02:33.727Z,-0.29
2018-02-08T03:03:14.269Z,-0.26
2018-02-08T03:03:54.821Z,-0.35
2018-02-08T03:04:35.393Z,-0.31
2018-02-08T03:05:15.962Z,-0.34
2018-02-08T03:05:56.519Z,-0.28
2018-02-08T03:06:37.094Z,-0.38
2018-02-08T03:07:17.656Z,-0.39
2018-02-08T03:07:58.194Z,-0.39
2018-02-08T03:08:38.774Z,-0.28
2018-02-08T03:09:19.329Z,-0.32
2018-02-08T03:09:59.869Z,-0.34
2018-02-08T03:10:40.436Z,-0.32
2018-02-08T03:11:20.995Z,-0.35
2018-02-08T03:12:01.565Z,-0.32
2018-02-08T03:12:42.144Z,-0.34
2018-02-08T03:13:22.670Z,-0.35
2018-02-08T03:14:03.237Z,-0.36
2018-02-08T03:14:43.854Z,-0.28
2018-02-08T03:15:24.410Z,-0.31
2018-02-08T03:16:04.997Z,-0.31
2018-02-08T03:16:45.549Z,-0.32
2018-02-08T03:17:26.109Z,-0.28
2018-02-08T03:18:06.658Z,-0.39
2018-02-08T03:18:47.271Z,-0.31
2018-02-08T03:19:27.828Z,-0.32
2018-02-08T03:20:08.397Z,-0.36
2018-02-08T03:20:49.005Z,-0.32
2018-02-08T03:21:29.547Z,-0.31
2018-02-08T03:22:10.112Z,-0.41
2018-02-08T03:22:50.663Z,-0.43
2018-02-08T03:23:31.219Z,-0.38
2018-02-08T03:24:11.799Z,-0.43
2018-02-08T03:24:52.330Z,-0.43
2018-02-08T03:25:32.858Z,-0.47
2018-02-08T03:26:13.450Z,-0.49
2018-02-08T03:26:53.990Z,-0.43
2018-02-08T03:27:34.549Z,-0.47
2018-02-08T03:28:15.094Z,-0.44
2018-02-08T03:28:55.653Z,-0.47
2018-02-08T03:29:36.205Z,-0.5
2018-02-08T03:30:16.754Z,-0.54
2018-02-08T03:30:57.302Z,-0.56
2018-02-08T03:31:37.864Z,-0.47
2018-02-08T03:32:18.414Z,-0.5
2018-02-08T03:32:58.969Z,-0.52
2018-02-08T03:33:39.514Z,-0.59
2018-02-08T03:34:20.080Z,-0.59
2018-02-08T03:35:00.620Z,-0.47
2018-02-08T03:35:41.167Z,-0.53
2018-02-08T03:36:21.723Z,-0.49
2018-02-08T03:37:02.272Z,-0.54
2018-02-08T03:37:42.837Z,-0.54
2018-02-08T03:38:23.395Z,-0.7
2018-02-08T03:39:03.946Z,-0.62
2018-02-08T03:39:44.524Z,-0.59
2018-02-08T03:40:25.087Z,-0.7
2018-02-08T03:41:05.719Z,-0.56
2018-02-08T03:41:46.315Z,-0.65
2018-02-08T03:42:26.866Z,-0.61
2018-02-08T03:43:07.419Z,-0.62
2018-02-08T03:43:47.959Z,-0.75
2018-02-08T03:44:28.575Z,-0.74
2018-02-08T03:45:09.112Z,-0.77
2018-02-08T03:45:49.645Z,-0.74
2018-02-08T03:46:30.204Z,-0.7
2018-02-08T03:47:10.759Z,-0.7
2018-02-08T03:47:51.321Z,-0.78
2018-02-08T03:48:31.863Z,-0.8
2018-02-08T03:49:12.423Z,-0.8
2018-02-08T03:49:52.960Z,-0.8
2018-02-08T03:50:33.540Z,-0.83
2018-02-08T03:51:14.069Z,-0.82
2018-02-08T03:51:54.627Z,-0.89
2018-02-08T03:52:35.192Z,-0.9
2018-02-08T03:53:15.743Z,-0.85
2018-02-08T03:53:56.294Z,-0.89
2018-02-08T03:54:36.835Z,-0.91
2018-02-08T03:55:17.381Z,-0.86
2018-02-08T03:55:57.920Z,-0.78
2018-02-08T03:56:38.478Z,-0.89
2018-02-08T03:57:19.055Z,-0.89
2018-02-08T03:57:59.590Z,-0.86
2018-02-08T03:58:40.139Z,-0.78
2018-02-08T03:59:20.675Z,-0.82
2018-02-08T04:00:01.235Z,-0.89
2018-02-08T04:00:41.780Z,-0.83
2018-02-08T04:01:22.321Z,-0.8
2018-02-08T04:02:02.864Z,-0.77
2018-02-08T04:02:43.391Z,-0.8
2018-02-08T04:03:23.976Z,-0.77
2018-02-08T04:04:04.524Z,-0.85
2018-02-08T04:04:45.090Z,-0.85
2018-02-08T04:05:25.641Z,-0.93
2018-02-08T04:06:06.192Z,-0.78
2018-02-08T04:06:46.766Z,-0.86
2018-02-08T04:07:27.340Z,-0.89
2018-02-08T04:08:07.879Z,-0.91
2018-02-08T04:08:48.449Z,-0.93
2018-02-08T04:09:29.005Z,-0.91
2018-02-08T04:10:09.563Z,-0.97
2018-02-08T04:10:50.131Z,-0.99
2018-02-08T04:11:30.691Z,-0.91
2018-02-08T04:12:11.251Z,-0.94
2018-02-08T04:12:51.809Z,-1.05
2018-02-08T04:13:32.380Z,-0.94
2018-02-08T04:14:12.931Z,-0.99
2018-02-08T04:14:53.466Z,-1.05
2018-02-08T04:15:34.027Z,-1.02
2018-02-08T04:16:14.564Z,-0.97
2018-02-08T04:16:55.094Z,-0.99
2018-02-08T04:17:35.677Z,-0.99
2018-02-08T04:18:16.240Z,-1.04
2018-02-08T04:18:56.794Z,-0.93
2018-02-08T04:19:37.350Z,-1.04
2018-02-08T04:20:17.917Z,-1.08
2018-02-08T04:20:58.507Z,-1.04
2018-02-08T04:21:39.054Z,-0.97
2018-02-08T04:22:19.625Z,-1.05
2018-02-08T04:23:00.184Z,-1.08
2018-02-08T04:23:40.726Z,-1.08
2018-02-08T04:24:21.274Z,-1.07
2018-02-08T04:25:01.832Z,-1.11
2018-02-08T04:25:42.386Z,-1.05
2018-02-08T04:26:22.934Z,-1.08
2018-02-08T04:27:03.517Z,-1.08
2018-02-08T04:27:44.037Z,-1.07
2018-02-08T04:28:24.587Z,-1.08
2018-02-08T04:29:05.138Z,-1.12
2018-02-08T04:29:45.699Z,-1.09
2018-02-08T04:30:26.239Z,-1.07
2018-02-08T04:31:06.798Z,-1.09
2018-02-08T04:31:47.354Z,-1.19
2018-02-08T04:32:27.898Z,-1.15
2018-02-08T04:33:08.436Z,-1.11
2018-02-08T04:33:48.993Z,-1.15
2018-02-08T04:34:29.551Z,-1.14
2018-02-08T04:35:10.201Z,-1.17
2018-02-08T04:35:50.737Z,-1.09
2018-02-08T04:36:31.293Z,-1.15
2018-02-08T04:37:11.848Z,-1.2
2018-02-08T04:37:52.396Z,-1.11
2018-02-08T04:38:32.947Z,-1.11
2018-02-08T04:39:13.502Z,-1.09
2018-02-08T04:39:54.066Z,-1.12
2018-02-08T04:40:34.609Z,-1.08
2018-02-08T04:41:15.173Z,-1.07
2018-02-08T04:41:55.722Z,-1.08
2018-02-08T04:42:36.271Z,-1.07
2018-02-08T04:43:16.827Z,-1.08
2018-02-08T04:43:57.438Z,-1.08
2018-02-08T04:44:38.014Z,-1.09
2018-02-08T04:45:18.566Z,-1.08
2018-02-08T04:45:59.119Z,-1.09
2018-02-08T04:46:39.681Z,-1.08
2018-02-08T04:47:20.219Z,-1.05
2018-02-08T04:48:00.778Z,-1.07
2018-02-08T04:48:41.320Z,-1.08
2018-02-08T04:49:21.863Z,-1.07
2018-02-08T04:50:02.422Z,-1.08
2018-02-08T04:50:42.980Z,-1.08
2018-02-08T04:51:23.625Z,-0.99
2018-02-08T04:52:04.194Z,-0.97
2018-02-08T04:52:44.737Z,-1.09
2018-02-08T04:53:25.348Z,-1.05
2018-02-08T04:54:05.928Z,-1.02
2018-02-08T04:54:46.463Z,-0.99
2018-02-08T04:55:27.013Z,-0.97
2018-02-08T04:56:07.556Z,-0.93
2018-02-08T04:56:48.113Z,-0.86
2018-02-08T04:57:28.682Z,-0.97
2018-02-08T04:58:09.238Z,-0.97
2018-02-08T04:58:49.797Z,-0.9
2018-02-08T04:59:30.337Z,-0.9
2018-02-08T05:00:10.892Z,-0.83
2018-02-08T05:00:51.462Z,-0.85
2018-02-08T05:01:32.102Z,-0.85
2018-02-08T05:02:12.647Z,-0.85
2018-02-08T05:02:53.197Z,-0.89
2018-02-08T05:03:33.745Z,-0.82
2018-02-08T05:04:14.288Z,-0.89
2018-02-08T05:04:55.259Z,-0.78
2018-02-08T05:05:35.792Z,-0.86
2018-02-08T05:06:16.387Z,-0.83
2018-02-08T05:06:57.180Z,-0.82
2018-02-08T05:07:37.544Z,-0.77
2018-02-08T05:08:18.114Z,-0.78
2018-02-08T05:08:58.658Z,-0.82
2018-02-08T05:09:39.220Z,-0.8
2018-02-08T05:10:19.782Z,-0.82
2018-02-08T05:11:00.326Z,-0.82
2018-02-08T05:11:40.871Z,-0.75
2018-02-08T05:12:21.424Z,-0.71
2018-02-08T05:13:01.981Z,-0.8
2018-02-08T05:13:42.547Z,-0.74
2018-02-08T05:14:23.103Z,-0.68
2018-02-08T05:15:03.646Z,-0.71
2018-02-08T05:15:44.198Z,-0.82
2018-02-08T05:16:24.747Z,-0.8
2018-02-08T05:17:05.364Z,-0.72
2018-02-08T05:17:45.915Z,-0.78
2018-02-08T05:18:26.499Z,-0.78
2018-02-08T05:19:07.056Z,-0.78
2018-02-08T05:19:47.603Z,-0.8
2018-02-08T05:20:28.164Z,-0.77
2018-02-08T05:21:08.705Z,-0.78
2018-02-08T05:21:49.249Z,-0.8
2018-02-08T05:22:29.824Z,-0.82
2018-02-08T05:23:10.373Z,-0.78
2018-02-08T05:23:50.920Z,-0.71
2018-02-08T05:24:31.477Z,-0.74
2018-02-08T05:25:12.011Z,-0.75
2018-02-08T05:25:52.568Z,-0.77
2018-02-08T05:26:33.108Z,-0.75
2018-02-08T05:27:13.692Z,-0.72
2018-02-08T05:27:54.234Z,-0.7
2018-02-08T05:28:34.767Z,-0.7
2018-02-08T05:29:15.327Z,-0.7
2018-02-08T05:29:55.870Z,-0.74
2018-02-08T05:30:36.422Z,-0.7
2018-02-08T05:31:16.981Z,-0.7
2018-02-08T05:31:57.529Z,-0.74
2018-02-08T05:32:38.075Z,-0.72
2018-02-08T05:33:18.626Z,-0.75
2018-02-08T05:33:59.178Z,-0.75
2018-02-08T05:34:39.733Z,-0.74
2018-02-08T05:35:20.284Z,-0.75
2018-02-08T05:36:00.848Z,-0.82
2018-02-08T05:36:41.401Z,-0.82
2018-02-08T05:37:21.953Z,-0.85
2018-02-08T05:38:02.511Z,-0.75
2018-02-08T05:38:43.054Z,-0.83
2018-02-08T05:39:23.609Z,-0.85
2018-02-08T05:40:04.190Z,-0.85
2018-02-08T05:40:44.743Z,-0.85
2018-02-08T05:41:25.284Z,-0.83
2018-02-08T05:42:05.852Z,-0.9
2018-02-08T05:42:46.418Z,-0.89
2018-02-08T05:43:26.975Z,-0.89
2018-02-08T05:44:07.546Z,-0.96
2018-02-08T05:44:48.109Z,-0.97
2018-02-08T05:45:28.633Z,-0.94
2018-02-08T05:46:09.195Z,-0.93
2018-02-08T05:46:49.751Z,-0.93
2018-02-08T05:47:30.308Z,-0.89
2018-02-08T05:48:10.860Z,-0.93
2018-02-08T05:48:51.422Z,-0.89
2018-02-08T05:49:31.973Z,-0.91
2018-02-08T05:50:12.525Z,-0.96
2018-02-08T05:50:53.064Z,-0.91
2018-02-08T05:51:33.621Z,-0.91
2018-02-08T05:52:14.185Z,-0.91
2018-02-08T05:52:54.789Z,-0.9
2018-02-08T05:53:35.310Z,-0.89
2018-02-08T05:54:15.861Z,-0.85
2018-02-08T05:54:56.402Z,-0.82
2018-02-08T05:55:36.980Z,-0.93
2018-02-08T05:56:17.556Z,-0.89
2018-02-08T05:56:58.135Z,-0.83
2018-02-08T05:57:38.689Z,-0.83
2018-02-08T05:58:19.251Z,-0.89
2018-02-08T05:58:59.803Z,-0.86
2018-02-08T05:59:40.416Z,-0.78
2018-02-08T06:00:20.949Z,-0.83
2018-02-08T06:01:01.519Z,-0.83
2018-02-08T06:01:42.084Z,-0.85
2018-02-08T06:02:22.629Z,-0.85
2018-02-08T06:03:03.186Z,-0.8
2018-02-08T06:03:43.798Z,-0.75
2018-02-08T06:04:24.349Z,-0.72
2018-02-08T06:05:04.923Z,-0.8
2018-02-08T06:05:45.543Z,-0.74
2018-02-08T06:06:26.166Z,-0.82
2018-02-08T06:07:06.682Z,-0.72
2018-02-08T06:07:47.248Z,-0.8
2018-02-08T06:08:27.834Z,-0.77
2018-02-08T06:09:08.406Z,-0.71
2018-02-08T06:09:49.021Z,-0.68
2018-02-08T06:10:29.645Z,-0.74
2018-02-08T06:11:10.204Z,-0.71
2018-02-08T06:11:50.821Z,-0.68
2018-02-08T06:12:31.517Z,-0.74
2018-02-08T06:13:12.107Z,-0.71
2018-02-08T06:13:52.678Z,-0.7
2018-02-08T06:14:33.299Z,-0.7
2018-02-08T06:15:13.858Z,-0.74
2018-02-08T06:15:54.429Z,-0.7
2018-02-08T06:16:34.978Z,-0.72
2018-02-08T06:17:15.618Z,-0.7
2018-02-08T06:17:56.179Z,-0.7
2018-02-08T06:18:37.254Z,-0.77
2018-02-08T06:19:17.890Z,-0.75
2018-02-08T06:19:58.434Z,-0.77
2018-02-08T06:20:39.019Z,-0.8
2018-02-08T06:21:19.549Z,-0.75
2018-02-08T06:22:00.133Z,-0.83
2018-02-08T06:22:40.780Z,-0.77
2018-02-08T06:23:21.375Z,-0.78
2018-02-08T06:24:01.968Z,-0.8
2018-02-08T06:24:42.513Z,-0.72
2018-02-08T06:25:23.099Z,-0.78
2018-02-08T06:26:03.638Z,-0.77
2018-02-08T06:26:44.192Z,-0.8
2018-02-08T06:27:24.738Z,-0.8
2018-02-08T06:28:05.338Z,-0.85
2018-02-08T06:28:45.882Z,-0.9
2018-02-08T06:29:26.537Z,-0.89
2018-02-08T06:30:07.124Z,-0.83
2018-02-08T06:30:47.703Z,-0.82
2018-02-08T06:31:28.310Z,-0.83
2018-02-08T06:32:08.865Z,-0.91
2018-02-08T06:32:49.462Z,-0.89
2018-02-08T06:33:30.092Z,-0.97
2018-02-08T06:34:10.579Z,-0.9
2018-02-08T06:34:51.137Z,-0.91
2018-02-08T06:35:31.715Z,-0.85
2018-02-08T06:36:12.267Z,-0.91
2018-02-08T06:36:52.813Z,-0.93
2018-02-08T06:37:33.365Z,-0.93
2018-02-08T06:38:13.957Z,-0.89
2018-02-08T06:38:54.472Z,-0.83
2018-02-08T06:39:35.052Z,-0.85
2018-02-08T06:40:15.599Z,-0.85
2018-02-08T06:40:56.185Z,-0.78
2018-02-08T06:41:36.735Z,-0.86
2018-02-08T06:42:17.280Z,-0.85
2018-02-08T06:42:57.825Z,-0.86
2018-02-08T06:43:38.399Z,-0.86
2018-02-08T06:44:18.937Z,-0.83
2018-02-08T06:44:59.490Z,-0.85
2018-02-08T06:45:40.101Z,-0.8
2018-02-08T06:46:20.628Z,-0.78
2018-02-08T06:47:01.227Z,-0.89
2018-02-08T06:47:41.826Z,-0.78
2018-02-08T06:48:22.405Z,-0.82
2018-02-08T06:49:02.927Z,-0.77
2018-02-08T06:49:43.524Z,-0.8
2018-02-08T06:50:24.075Z,-0.8
2018-02-08T06:51:04.684Z,-0.78
2018-02-08T06:51:45.240Z,-0.85
2018-02-08T06:52:25.787Z,-0.89
2018-02-08T06:53:06.338Z,-0.82
2018-02-08T06:53:46.924Z,-0.89
2018-02-08T06:54:27.444Z,-0.89
2018-02-08T06:55:08.040Z,-0.85
2018-02-08T06:55:48.607Z,-0.85
2018-02-08T06:56:29.173Z,-0.93
2018-02-08T06:57:09.746Z,-0.97
2018-02-08T06:57:50.340Z,-0.9
2018-02-08T06:58:30.893Z,-0.9
2018-02-08T06:59:11.453Z,-0.89
2018-02-08T06:59:52.054Z,-0.89
2018-02-08T07:00:32.599Z,-0.93
2018-02-08T07:01:13.137Z,-0.9
2018-02-08T07:01:53.703Z,-0.83
2018-02-08T07:02:34.237Z,-0.91
2018-02-08T07:03:14.785Z,-0.86
2018-02-08T07:03:55.318Z,-0.91
2018-02-08T07:04:35.861Z,-0.86
2018-02-08T07:05:16.440Z,-0.82
2018-02-08T07:05:56.982Z,-0.86
2018-02-08T07:06:37.561Z,-0.9
2018-02-08T07:07:18.102Z,-0.91
2018-02-08T07:07:58.665Z,-0.89
2018-02-08T07:08:39.231Z,-0.93
2018-02-08T07:09:19.806Z,-0.9
2018-02-08T07:10:00.365Z,-0.86
2018-02-08T07:10:40.917Z,-0.85
2018-02-08T07:11:21.471Z,-0.75
2018-02-08T07:12:02.032Z,-0.72
2018-02-08T07:12:42.575Z,-0.7
2018-02-08T07:13:23.151Z,-0.75
2018-02-08T07:14:03.693Z,-0.71
2018-02-08T07:14:44.217Z,-0.62
2018-02-08T07:15:24.792Z,-0.75
2018-02-08T07:16:05.353Z,-0.7
2018-02-08T07:16:45.930Z,-0.65
2018-02-08T07:17:26.538Z,-0.65
2018-02-08T07:18:07.073Z,-0.67
2018-02-08T07:18:47.616Z,-0.57
2018-02-08T07:19:28.231Z,-0.7
2018-02-08T07:20:08.783Z,-0.64
2018-02-08T07:20:49.326Z,-0.64
2018-02-08T07:21:29.884Z,-0.62
2018-02-08T07:22:10.475Z,-0.65
2018-02-08T07:22:51.035Z,-0.7
2018-02-08T07:23:31.591Z,-0.65
2018-02-08T07:24:12.120Z,-0.65
2018-02-08T07:24:52.666Z,-0.67
2018-02-08T07:25:33.238Z,-0.65
2018-02-08T07:26:13.795Z,-0.64
2018-02-08T07:26:54.389Z,-0.67
2018-02-08T07:27:34.915Z,-0.61
2018-02-08T07:28:15.476Z,-0.61
2018-02-08T07:28:56.040Z,-0.61
2018-02-08T07:29:36.627Z,-0.62
2018-02-08T07:30:17.163Z,-0.67
2018-02-08T07:30:57.689Z,-0.65
2018-02-08T07:31:38.270Z,-0.57
2018-02-08T07:32:18.861Z,-0.56
2018-02-08T07:32:59.443Z,-0.59
2018-02-08T07:33:39.979Z,-0.54
2018-02-08T07:34:20.540Z,-0.53
2018-02-08T07:35:01.102Z,-0.52
2018-02-08T07:35:41.659Z,-0.61
2018-02-08T07:36:22.191Z,-0.53
2018-02-08T07:37:02.743Z,-0.53
2018-02-08T07:37:43.294Z,-0.59
2018-02-08T07:38:23.857Z,-0.54
2018-02-08T07:39:04.406Z,-0.59
2018-02-08T07:39:44.970Z,-0.46
2018-02-08T07:40:25.524Z,-0.5
2018-02-08T07:41:06.084Z,-0.47
2018-02-08T07:41:46.645Z,-0.44
2018-02-08T07:42:27.176Z,-0.49
2018-02-08T07:43:07.861Z,-0.39
2018-02-08T07:43:48.422Z,-0.36
2018-02-08T07:44:28.984Z,-0.43
2018-02-08T07:45:09.526Z,-0.38
2018-02-08T07:45:50.103Z,-0.32
2018-02-08T07:46:30.651Z,-0.32
2018-02-08T07:47:11.201Z,-0.31
2018-02-08T07:47:51.819Z,-0.38
2018-02-08T07:48:32.329Z,-0.34
2018-02-08T07:49:12.872Z,-0.35
2018-02-08T07:49:53.413Z,-0.31
2018-02-08T07:50:33.956Z,-0.32
2018-02-08T07:51:14.530Z,-0.26
2018-02-08T07:51:55.083Z,-0.23
2018-02-08T07:52:35.631Z,-0.31
2018-02-08T07:53:16.181Z,-0.34
2018-02-08T07:53:56.778Z,-0.25
2018-02-08T07:54:37.343Z,-0.34
2018-02-08T07:55:17.884Z,-0.21
2018-02-08T07:55:58.432Z,-0.23
2018-02-08T07:56:38.976Z,-0.26
2018-02-08T07:57:19.531Z,-0.2
2018-02-08T07:58:00.093Z,-0.18
2018-02-08T07:58:40.641Z,-0.23
2018-02-08T07:59:21.199Z,-0.15
2018-02-08T08:00:01.769Z,-0.23
2018-02-08T08:00:42.313Z,-0.13
2018-02-08T08:01:22.897Z,-0.14
2018-02-08T08:02:03.474Z,-0.18
2018-02-08T08:02:44.070Z,-0.18
2018-02-08T08:03:24.923Z,-0.17
2018-02-08T08:04:05.642Z,-0.17
2018-02-08T08:04:46.291Z,-0.23
2018-02-08T08:05:27.065Z,-0.17
2018-02-08T08:06:08.159Z,-0.17
2018-02-08T08:06:48.896Z,-0.18
2018-02-08T08:07:29.539Z,-0.15
2018-02-08T08:08:10.278Z,-0.17
2018-02-08T08:08:51.022Z,-0.11
2018-02-08T08:09:31.834Z,-0.17
2018-02-08T08:10:12.942Z,-0.15
2018-02-08T08:10:53.761Z,-0.11
2018-02-08T08:11:34.767Z,-0.13
2018-02-08T08:12:15.355Z,-0.15
2018-02-08T08:12:56.084Z,-0.11
2018-02-08T08:13:36.754Z,-0.1
2018-02-08T08:14:17.467Z,-0.15
2018-02-08T08:14:58.088Z,-0.17
2018-02-08T08:15:38.815Z,-0.11
2018-02-08T08:16:19.642Z,-0.14
2018-02-08T08:17:00.485Z,-0.11
2018-02-08T08:17:41.356Z,-0.02
2018-02-08T08:18:21.925Z,-0.02
2018-02-08T08:19:03.001Z,-0.03
2018-02-08T08:19:43.484Z,-0.06
2018-02-08T08:20:24.110Z,0.03
2018-02-08T08:21:04.783Z,0.11
2018-02-08T08:21:45.346Z,0.03
2018-02-08T08:22:25.952Z,0.11
2018-02-08T08:23:06.542Z,0.15
2018-02-08T08:23:47.094Z,0.16
2018-02-08T08:24:27.700Z,0.12
2018-02-08T08:25:08.250Z,0.21
2018-02-08T08:25:48.812Z,0.32
2018-02-08T08:26:29.373Z,0.41
2018-02-08T08:27:09.963Z,0.62
2018-02-08T08:27:50.562Z,0.88
2018-02-08T08:28:31.130Z,1.14
2018-02-08T08:29:11.663Z,1.48
2018-02-08T08:29:52.207Z,1.73
2018-02-08T08:30:32.791Z,2.07
2018-02-08T08:31:13.332Z,2.28
2018-02-08T08:31:53.880Z,2.61
2018-02-08T08:32:34.498Z,2.89
2018-02-08T08:33:15.074Z,3.13
2018-02-08T08:33:55.633Z,3.4
2018-02-08T08:34:36.179Z,3.65
2018-02-08T08:35:16.723Z,3.84
2018-02-08T08:35:57.325Z,4.01
2018-02-08T08:36:37.874Z,4.24
2018-02-08T08:37:18.457Z,4.44
2018-02-08T08:37:59.089Z,4.63
2018-02-08T08:38:39.620Z,4.74
2018-02-08T08:39:20.192Z,4.87
2018-02-08T08:40:00.734Z,5.07
2018-02-08T08:40:41.304Z,5.32
2018-02-08T08:41:21.858Z,5.38
2018-02-08T08:42:02.435Z,5.65
2018-02-08T08:42:43.090Z,5.83
2018-02-08T08:43:23.680Z,5.91
2018-02-08T08:44:04.243Z,6.01
2018-02-08T08:44:44.862Z,6.17
2018-02-08T08:45:25.430Z,6.28
2018-02-08T08:46:05.967Z,6.45